Time;durP1;ratioP1;P1;durP2;ratioP2;P2;SDS_P1;SDS_P2;PMS_P1;PMS_P2;Temp;Humidity;BMP_temperature;BMP_pressure;BME280_temperature;BME280_humidity;BME280_pressure;Samples;Min_cycle;Max_cycle;Signal;HPM_P1;HPM_P2
2022/12/28 00:01:25;;;;;;;6.43;2.97;;;;;;;1.03;100.00;98053.22;5045504;28;20045;-61
2022/12/28 00:03:53;;;;;;;7.43;2.97;;;;;;;1.17;100.00;98054.31;5035575;28;20046;-60
2022/12/28 00:06:21;;;;;;;8.88;4.20;;;;;;;1.19;100.00;98051.50;5041434;28;20049;-61
2022/12/28 00:08:51;;;;;;;5.25;2.92;;;;;;;1.10;100.00;98046.19;5054607;28;20048;-60
2022/12/28 00:11:19;;;;;;;6.47;2.85;;;;;;;1.00;100.00;98038.41;5040381;28;20529;-61
2022/12/28 00:13:59;;;;;;;6.93;2.78;;;;;;;1.08;100.00;98036.72;5034232;28;20068;-61
2022/12/28 00:16:27;;;;;;;6.13;2.72;;;;;;;0.94;100.00;98031.09;5035693;28;20533;-62
2022/12/28 00:18:54;;;;;;;7.65;2.80;;;;;;;0.87;100.00;98030.97;5038465;28;20798;-62
2022/12/28 00:21:21;;;;;;;4.50;2.33;;;;;;;1.04;100.00;98033.56;5049814;28;20148;-61
2022/12/28 00:23:49;;;;;;;8.85;2.97;;;;;;;1.14;100.00;98039.50;5036999;28;20193;-61
2022/12/28 00:26:16;;;;;;;5.15;2.67;;;;;;;1.04;100.00;98039.72;5038641;28;20044;-62
2022/12/28 00:28:43;;;;;;;6.22;3.15;;;;;;;0.84;100.00;98033.97;5028025;28;20392;-61
2022/12/28 00:31:10;;;;;;;4.85;2.42;;;;;;;0.89;100.00;98023.63;5037897;28;20102;-62
2022/12/28 00:33:36;;;;;;;6.60;2.80;;;;;;;0.90;100.00;98027.97;5046235;28;20030;-62
2022/12/28 00:36:05;;;;;;;9.20;3.15;;;;;;;0.94;100.00;98031.09;5046906;28;20060;-61
2022/12/28 00:38:36;;;;;;;6.22;3.03;;;;;;;1.17;100.00;98031.16;5036078;28;20041;-59
2022/12/28 00:41:05;;;;;;;5.75;2.70;;;;;;;1.17;100.00;98022.31;5039824;28;20471;-61
2022/12/28 00:43:33;;;;;;;5.13;2.80;;;;;;;1.04;100.00;98006.91;5043525;28;20034;-61
2022/12/28 00:46:00;;;;;;;5.35;2.58;;;;;;;0.96;100.00;98002.41;5048119;28;20041;-62
2022/12/28 00:48:27;;;;;;;7.68;2.95;;;;;;;0.89;100.00;98002.28;5045872;28;20040;-61
2022/12/28 00:51:01;;;;;;;8.90;2.53;;;;;;;0.88;100.00;97992.63;5053234;28;20091;-61
2022/12/28 00:53:28;;;;;;;7.70;2.85;;;;;;;0.90;100.00;97993.31;5026287;28;20036;-61
2022/12/28 00:55:54;;;;;;;4.93;2.88;;;;;;;0.98;100.00;97986.25;5034872;28;20067;-61
2022/12/28 00:58:21;;;;;;;5.18;2.78;;;;;;;1.06;100.00;97986.19;5036385;28;20038;-61
2022/12/28 01:00:48;;;;;;;4.07;2.40;;;;;;;1.07;100.00;97979.84;5051976;28;20044;-61
2022/12/28 01:03:14;;;;;;;6.97;2.72;;;;;;;0.99;100.00;97978.06;5065932;28;20051;-60
2022/12/28 01:05:41;;;;;;;6.88;2.70;;;;;;;1.03;100.00;97986.53;5034563;28;20056;-61
2022/12/28 01:08:07;;;;;;;7.43;2.90;;;;;;;1.04;100.00;97980.22;5016617;28;20626;-61
2022/12/28 01:10:34;;;;;;;5.05;2.60;;;;;;;1.06;100.00;97977.38;5038190;28;20057;-60
2022/12/28 01:13:00;;;;;;;4.93;2.60;;;;;;;1.09;100.00;97974.34;5029398;28;20080;-60
2022/12/28 01:15:27;;;;;;;5.68;2.90;;;;;;;1.03;100.00;97982.06;5041577;28;20048;-61
2022/12/28 01:17:53;;;;;;;4.65;2.70;;;;;;;1.09;100.00;97971.69;5031402;28;20048;-61
2022/12/28 01:20:20;;;;;;;6.47;2.47;;;;;;;1.06;100.00;97969.38;5028945;28;20532;-62
2022/12/28 01:22:46;;;;;;;7.72;2.85;;;;;;;1.02;100.00;97972.41;5034089;28;20115;-60
2022/12/28 01:25:13;;;;;;;5.28;2.25;;;;;;;1.15;100.00;97963.00;5027473;28;20103;-61
2022/12/28 01:27:39;;;;;;;3.78;1.95;;;;;;;1.20;100.00;97957.09;5045736;28;20048;-61
2022/12/28 01:30:07;;;;;;;7.18;2.70;;;;;;;1.26;100.00;97954.56;5026513;28;20099;-61
2022/12/28 01:32:33;;;;;;;4.60;2.20;;;;;;;1.35;100.00;97958.00;5047257;28;20047;-59
2022/12/28 01:35:00;;;;;;;5.47;2.15;;;;;;;1.36;100.00;97946.31;5041589;28;20835;-61
2022/12/28 01:37:26;;;;;;;4.78;1.85;;;;;;;1.48;100.00;97953.91;5039490;28;20052;-61
2022/12/28 01:39:53;;;;;;;5.07;1.73;;;;;;;1.53;100.00;97947.03;5045187;28;20550;-61
2022/12/28 01:42:19;;;;;;;4.45;1.75;;;;;;;1.53;100.00;97939.03;5041065;28;20041;-61
2022/12/28 01:44:48;;;;;;;3.28;1.58;;;;;;;1.53;100.00;97939.03;5026773;28;20045;-61
2022/12/28 01:47:19;;;;;;;4.38;1.90;;;;;;;1.61;100.00;97929.28;5038006;28;20103;-61
2022/12/28 01:50:02;;;;;;;3.70;1.85;;;;;;;1.60;100.00;97927.63;5027720;28;20578;-60
2022/12/28 01:52:41;;;;;;;4.47;1.60;;;;;;;1.69;100.00;97924.72;5042461;28;20053;-60
2022/12/28 01:55:16;;;;;;;2.55;1.30;;;;;;;1.86;100.00;97923.72;5028861;28;20033;-60
2022/12/28 01:57:50;;;;;;;4.15;1.58;;;;;;;1.83;100.00;97924.09;5064476;28;20055;-61
2022/12/28 02:00:17;;;;;;;4.00;2.08;;;;;;;1.89;100.00;97918.84;5031625;28;20037;-61
2022/12/28 02:02:58;;;;;;;3.70;1.70;;;;;;;1.84;100.00;97923.06;5057936;28;20036;-59
2022/12/28 02:05:30;;;;;;;3.60;1.67;;;;;;;1.80;100.00;97917.25;5044364;28;20063;-60
2022/12/28 02:08:06;;;;;;;4.80;1.73;;;;;;;1.69;100.00;97911.34;5048544;28;20097;-60
2022/12/28 02:10:36;;;;;;;5.63;2.00;;;;;;;1.70;100.00;97909.53;5032458;28;20050;-61
2022/12/28 02:13:12;;;;;;;4.22;1.60;;;;;;;1.73;100.00;97903.81;5040746;28;20079;-60
2022/12/28 02:15:38;;;;;;;3.38;1.70;;;;;;;1.66;100.00;97903.69;5044490;28;20040;-62
2022/12/28 02:18:05;;;;;;;5.38;2.13;;;;;;;1.73;100.00;97903.81;5042889;28;20098;-62
2022/12/28 02:20:46;;;;;;;4.00;2.05;;;;;;;1.76;100.00;97905.28;5043610;28;20428;-62
2022/12/28 02:23:32;;;;;;;3.75;1.92;;;;;;;1.79;100.00;97891.56;5045845;28;20090;-62
2022/12/28 02:26:10;;;;;;;4.97;1.80;;;;;;;1.76;100.00;97894.59;5045301;28;20044;-60
2022/12/28 02:28:59;;;;;;;3.80;1.80;;;;;;;1.71;100.00;97891.66;5047847;28;20052;-62
2022/12/28 02:31:56;;;;;;;3.65;1.70;;;;;;;1.74;100.00;97867.25;5050994;28;20048;-62
2022/12/28 02:34:44;;;;;;;4.05;2.00;;;;;;;1.68;100.00;97868.81;5061499;28;20437;-62
2022/12/28 02:37:20;;;;;;;3.00;1.92;;;;;;;1.69;100.00;97865.97;5025658;28;20049;-61
2022/12/28 02:39:57;;;;;;;3.53;1.70;;;;;;;1.79;100.00;97860.38;5035882;28;20053;-60
2022/12/28 02:42:25;;;;;;;4.28;1.65;;;;;;;1.87;100.00;97864.78;5046103;28;20056;-60
2022/12/28 02:50:46;;;;;;;2.03;1.13;;;;;;;1.94;100.00;97843.50;5036827;28;20100;-61
2022/12/28 02:53:39;;;;;;;4.10;1.48;;;;;;;1.94;100.00;97832.81;5043965;28;20049;-60
2022/12/28 02:56:26;;;;;;;2.85;1.27;;;;;;;2.02;100.00;97826.56;5028941;28;20126;-60
2022/12/28 02:59:32;;;;;;;3.20;1.35;;;;;;;2.06;100.00;97834.03;5033418;28;20088;-61
2022/12/28 03:02:06;;;;;;;3.60;1.48;;;;;;;2.11;100.00;97820.13;5033323;28;20045;-61
2022/12/28 03:05:10;;;;;;;3.13;1.25;;;;;;;2.29;98.88;97822.38;5041910;28;20120;-61
2022/12/28 03:10:45;;;;;;;2.53;1.20;;;;;;;2.26;98.57;97829.94;5065656;28;20098;-62
2022/12/28 03:16:31;;;;;;;6.20;1.40;;;;;;;2.25;98.50;97837.13;5046219;28;20046;-61
2022/12/28 03:33:09;;;;;;;3.08;1.40;;;;;;;2.10;99.47;97809.63;5046842;28;20049;-61
2022/12/28 03:35:41;;;;;;;4.38;1.40;;;;;;;2.11;99.44;97796.06;5032211;28;20044;-61
2022/12/28 03:38:11;;;;;;;2.22;1.00;;;;;;;2.14;99.23;97803.69;5045179;28;20528;-61
2022/12/28 03:40:41;;;;;;;3.97;1.40;;;;;;;2.13;99.34;97796.69;5045258;28;20463;-61
2022/12/28 03:46:06;;;;;;;4.43;1.42;;;;;;;2.18;98.86;97791.63;5047569;28;20048;-61
2022/12/28 03:48:36;;;;;;;1.73;0.98;;;;;;;2.17;99.40;97791.81;5042970;28;20041;-61
2022/12/28 03:51:03;;;;;;;3.45;1.30;;;;;;;2.23;99.06;97792.91;5044420;28;20135;-60
2022/12/28 03:53:38;;;;;;;2.45;1.00;;;;;;;2.28;98.33;97790.50;5050677;28;20048;-60
2022/12/28 03:56:13;;;;;;;2.53;1.20;;;;;;;2.25;98.76;97796.22;5044427;28;20132;-60
2022/12/28 03:58:42;;;;;;;4.72;1.10;;;;;;;2.24;99.09;97789.22;5026621;28;20056;-60
2022/12/28 04:01:08;;;;;;;2.53;1.05;;;;;;;2.24;99.07;97778.53;5025394;28;20367;-60
2022/12/28 04:03:37;;;;;;;1.67;0.80;;;;;;;2.26;98.99;97782.69;5042956;28;20049;-60
2022/12/28 04:06:04;;;;;;;1.90;1.02;;;;;;;2.25;98.88;97781.00;5046193;28;20132;-60
2022/12/28 04:08:32;;;;;;;3.67;1.35;;;;;;;2.27;98.99;97784.34;5046210;28;20432;-61
2022/12/28 04:11:00;;;;;;;4.25;1.13;;;;;;;2.28;99.09;97779.81;5063226;28;20068;-60
2022/12/28 04:13:31;;;;;;;3.33;1.13;;;;;;;2.30;98.94;97778.63;5041927;28;20057;-61
2022/12/28 04:16:12;;;;;;;3.13;0.88;;;;;;;2.38;98.46;97769.66;5042596;28;20520;-61
2022/12/28 04:18:40;;;;;;;4.03;0.80;;;;;;;2.37;98.74;97759.13;5046680;28;20049;-60
2022/12/28 04:21:08;;;;;;;1.95;0.93;;;;;;;2.43;98.17;97755.72;5028679;28;20056;-60
2022/12/28 04:23:37;;;;;;;2.35;0.80;;;;;;;2.47;97.68;97754.34;5028036;28;20099;-60
2022/12/28 04:26:19;;;;;;;1.70;0.90;;;;;;;2.52;97.40;97748.41;5026431;28;20049;-59
2022/12/28 04:28:47;;;;;;;1.83;0.80;;;;;;;2.60;97.19;97742.94;5044600;28;20108;-60
2022/12/28 04:31:23;;;;;;;4.07;1.13;;;;;;;2.56;97.21;97747.84;5042156;28;20045;-60
2022/12/28 04:33:57;;;;;;;2.63;0.85;;;;;;;2.57;97.23;97743.28;5043562;28;20049;-59
2022/12/28 04:36:25;;;;;;;1.75;0.80;;;;;;;2.59;96.79;97746.63;5044265;28;20061;-58
2022/12/28 04:38:53;;;;;;;1.52;0.80;;;;;;;2.56;97.41;97744.31;5030788;28;20107;-61
2022/12/28 04:41:19;;;;;;;2.40;0.90;;;;;;;2.60;97.29;97750.94;5044790;28;20102;-60
2022/12/28 04:43:46;;;;;;;2.17;0.82;;;;;;;2.65;96.78;97750.38;5039201;28;20117;-61
2022/12/28 04:46:14;;;;;;;2.22;0.88;;;;;;;2.65;96.71;97747.72;5026662;28;20088;-60
2022/12/28 04:48:41;;;;;;;2.00;0.82;;;;;;;2.67;96.74;97751.84;5045968;28;20045;-60
2022/12/28 04:51:20;;;;;;;3.47;0.90;;;;;;;2.70;96.24;97751.44;5027006;28;20045;-60
2022/12/28 04:53:47;;;;;;;3.05;0.98;;;;;;;2.75;95.98;97750.03;5034270;28;20042;-61
2022/12/28 04:56:15;;;;;;;2.92;0.95;;;;;;;2.73;95.91;97740.38;5026103;28;20048;-61
2022/12/28 04:58:41;;;;;;;1.23;0.70;;;;;;;2.77;95.70;97746.19;5046516;28;20717;-61
2022/12/28 05:01:10;;;;;;;3.10;1.00;;;;;;;2.77;95.70;97737.31;5044162;28;20083;-60
2022/12/28 05:03:39;;;;;;;1.30;0.80;;;;;;;2.72;96.00;97730.69;5043603;28;20049;-60
2022/12/28 05:06:10;;;;;;;4.75;0.80;;;;;;;2.72;96.16;97730.69;5045026;28;20053;-61
2022/12/28 05:08:37;;;;;;;1.88;0.93;;;;;;;2.67;96.44;97734.97;5045383;28;20037;-61
2022/12/28 05:11:06;;;;;;;3.45;0.73;;;;;;;2.66;96.49;97727.97;5043951;28;20067;-60
2022/12/28 05:13:33;;;;;;;2.15;0.90;;;;;;;2.70;96.13;97729.25;5041013;28;20508;-59
2022/12/28 05:16:05;;;;;;;2.03;1.00;;;;;;;2.76;95.98;97733.00;5046341;28;20045;-60
2022/12/28 05:18:32;;;;;;;4.07;0.82;;;;;;;2.75;96.12;97729.47;5040190;28;20716;-60
2022/12/28 05:21:11;;;;;;;1.67;0.80;;;;;;;2.86;95.28;97730.81;5032813;28;20049;-59
2022/12/28 05:23:38;;;;;;;2.70;0.90;;;;;;;2.88;95.27;97730.63;5042049;28;20048;-61
2022/12/28 05:26:07;;;;;;;1.23;0.68;;;;;;;2.89;95.55;97727.75;5042997;28;20029;-61
2022/12/28 05:28:34;;;;;;;2.40;1.10;;;;;;;2.98;95.30;97723.06;5037311;28;20080;-61
2022/12/28 05:31:03;;;;;;;3.20;1.10;;;;;;;2.98;94.86;97729.25;5023500;28;20048;-61
2022/12/28 05:33:32;;;;;;;2.58;0.70;;;;;;;2.98;94.75;97723.06;5040259;28;20048;-58
2022/12/28 05:36:06;;;;;;;1.77;0.70;;;;;;;3.01;94.71;97717.34;5042410;28;20083;-60
2022/12/28 05:38:33;;;;;;;1.38;0.80;;;;;;;2.98;95.40;97715.88;5033879;28;20046;-60
2022/12/28 05:41:10;;;;;;;0.75;0.47;;;;;;;3.01;95.26;97716.50;5038317;28;20052;-60
2022/12/28 05:43:37;;;;;;;1.98;0.80;;;;;;;3.00;95.19;97707.66;5040052;28;20036;-60
2022/12/28 05:46:07;;;;;;;1.20;0.57;;;;;;;2.99;95.35;97706.84;5043560;28;20068;-59
2022/12/28 05:48:35;;;;;;;2.58;1.08;;;;;;;3.04;95.25;97706.25;5039059;28;20095;-60
2022/12/28 05:51:08;;;;;;;1.85;0.55;;;;;;;3.04;95.22;97708.09;5023176;28;20092;-59
2022/12/28 05:53:35;;;;;;;2.65;0.95;;;;;;;3.08;94.95;97704.84;5033957;28;20049;-60
2022/12/28 05:56:11;;;;;;;2.10;0.98;;;;;;;3.15;94.64;97701.38;5043188;28;20143;-60
2022/12/28 05:58:41;;;;;;;1.33;0.50;;;;;;;3.17;94.33;97688.66;5036366;28;20081;-60
2022/12/28 06:01:10;;;;;;;1.85;0.70;;;;;;;3.18;94.42;97695.63;5023796;28;20107;-60
2022/12/28 06:03:37;;;;;;;1.50;0.70;;;;;;;3.17;94.23;97689.44;5038939;28;20728;-60
2022/12/28 06:06:16;;;;;;;2.17;0.88;;;;;;;3.16;94.64;97692.34;5044464;28;20500;-60
2022/12/28 06:08:44;;;;;;;1.42;0.70;;;;;;;3.17;94.48;97697.47;5038721;28;20537;-60
2022/12/28 06:11:16;;;;;;;1.50;0.73;;;;;;;3.16;94.70;97684.31;5022573;28;20049;-60
2022/12/28 06:13:44;;;;;;;1.40;0.70;;;;;;;3.15;94.73;97688.00;5039506;28;20056;-61
2022/12/28 06:16:23;;;;;;;2.90;0.80;;;;;;;3.18;94.60;97675.06;5044312;28;20060;-60
2022/12/28 06:18:53;;;;;;;3.40;0.75;;;;;;;3.18;94.67;97676.91;5036072;28;20075;-60
2022/12/28 06:21:21;;;;;;;1.48;0.68;;;;;;;3.23;94.43;97677.13;5023118;28;20456;-60
2022/12/28 06:23:49;;;;;;;3.72;0.73;;;;;;;3.26;94.33;97684.78;4992672;28;1077635;-60
2022/12/28 06:26:19;;;;;;;2.72;0.70;;;;;;;3.25;94.50;97681.25;5024721;28;20687;-61
2022/12/28 06:28:47;;;;;;;2.15;0.60;;;;;;;3.30;94.33;97682.53;5038122;28;20045;-61
2022/12/28 06:31:22;;;;;;;1.27;0.70;;;;;;;3.36;93.81;97676.41;5044127;28;20072;-60
2022/12/28 06:33:52;;;;;;;1.73;0.90;;;;;;;3.33;93.79;97680.31;5035692;28;20037;-60
2022/12/28 06:36:22;;;;;;;1.58;0.63;;;;;;;3.29;94.56;97676.38;5024159;28;20113;-61
2022/12/28 06:38:50;;;;;;;5.22;1.10;;;;;;;3.32;93.92;97680.50;5042038;28;20057;-61
2022/12/28 06:41:19;;;;;;;1.75;0.73;;;;;;;3.31;94.15;97679.66;5043159;28;20522;-58
2022/12/28 06:43:46;;;;;;;1.35;0.70;;;;;;;3.33;93.79;97682.97;5044590;28;20044;-60
2022/12/28 06:46:14;;;;;;;1.83;0.80;;;;;;;3.30;93.91;97679.84;5039418;28;20045;-60
2022/12/28 06:48:41;;;;;;;4.22;0.75;;;;;;;3.30;93.98;97674.50;5040050;28;20073;-60
2022/12/28 06:51:25;;;;;;;1.65;0.73;;;;;;;3.35;93.75;97672.88;5030869;28;20092;-60
2022/12/28 06:53:52;;;;;;;1.98;0.80;;;;;;;3.35;94.10;97666.69;5038961;28;20056;-60
2022/12/28 06:56:25;;;;;;;3.42;0.70;;;;;;;3.37;93.65;97670.00;5034250;28;20048;-60
2022/12/28 06:58:52;;;;;;;1.60;0.80;;;;;;;3.43;93.19;97669.22;5033430;28;20048;-57
2022/12/28 07:01:31;;;;;;;2.53;0.90;;;;;;;3.40;93.56;97661.59;5034102;28;20041;-59
2022/12/28 07:03:58;;;;;;;3.65;1.00;;;;;;;3.34;93.89;97659.69;5046938;28;20041;-61
2022/12/28 07:06:27;;;;;;;2.00;0.70;;;;;;;3.34;93.64;97654.34;5023972;28;20772;-60
2022/12/28 07:09:02;;;;;;;3.17;0.95;;;;;;;3.32;93.77;97653.72;5044645;28;20119;-60
2022/12/28 07:11:29;;;;;;;8.20;1.05;;;;;;;3.38;93.57;97652.94;5032216;28;20128;-60
2022/12/28 07:13:55;;;;;;;1.33;0.80;;;;;;;3.34;93.78;97646.31;5032098;28;20567;-61
2022/12/28 07:16:24;;;;;;;3.53;1.05;;;;;;;3.34;93.87;97644.47;5043023;28;20697;-58
2022/12/28 07:18:50;;;;;;;2.70;1.10;;;;;;;3.41;93.49;97644.50;5049126;28;20119;-59
2022/12/28 07:21:23;;;;;;;3.55;1.30;;;;;;;3.38;93.60;97653.75;5034825;28;20041;-58
2022/12/28 07:23:51;;;;;;;3.85;1.10;;;;;;;3.32;93.91;97649.19;5044195;28;20045;-60
2022/12/28 07:26:29;;;;;;;2.10;0.90;;;;;;;3.36;93.93;97649.63;5046533;28;20040;-60
2022/12/28 07:28:58;;;;;;;2.25;0.90;;;;;;;3.31;94.13;97638.69;5049351;28;20142;-61
2022/12/28 07:31:30;;;;;;;2.67;1.02;;;;;;;3.33;94.32;97633.97;5025108;28;20053;-60
2022/12/28 07:33:58;;;;;;;1.88;0.98;;;;;;;3.39;93.84;97638.50;5039053;28;20103;-61
2022/12/28 07:36:28;;;;;;;3.95;1.05;;;;;;;3.36;94.09;97633.56;5043029;28;20079;-61
2022/12/28 07:38:55;;;;;;;2.60;1.05;;;;;;;3.40;94.57;97640.19;5038864;28;20113;-61
2022/12/28 07:41:24;;;;;;;3.40;1.08;;;;;;;3.50;93.82;97634.44;5044107;28;20499;-61
2022/12/28 07:43:51;;;;;;;5.38;1.20;;;;;;;3.60;93.11;97634.06;5053399;28;20051;-60
2022/12/28 07:46:23;;;;;;;3.65;0.95;;;;;;;3.66;92.80;97635.13;5028092;28;20144;-61
2022/12/28 07:48:50;;;;;;;3.17;0.95;;;;;;;3.73;92.31;97630.63;5037814;28;20041;-61
2022/12/28 07:51:25;;;;;;;3.15;0.93;;;;;;;3.85;91.72;97628.19;5037071;28;20127;-60
2022/12/28 07:53:54;;;;;;;2.15;0.82;;;;;;;4.00;90.48;97622.66;5046979;28;20756;-60
2022/12/28 07:56:22;;;;;;;2.25;0.70;;;;;;;4.06;90.45;97627.22;5051138;28;20466;-59
2022/12/28 07:58:53;;;;;;;1.63;0.90;;;;;;;4.09;90.82;97626.78;5045885;28;20497;-59
2022/12/28 08:01:21;;;;;;;;;;;;;;;4.16;89.74;97616.06;5042187;28;20063;-59
2022/12/28 08:03:52;;;;;;;2.80;0.73;;;;;;;4.20;89.57;97616.50;5052732;28;19939;-57
2022/12/28 08:06:21;;;;;;;1.75;0.60;;;;;;;4.24;89.20;97615.06;5043627;28;20041;-61
2022/12/28 08:08:54;;;;;;;4.13;0.80;;;;;;;4.29;89.11;97615.25;5050791;28;20049;-58
2022/12/28 08:11:24;;;;;;;3.60;0.88;;;;;;;4.32;89.66;97614.03;5036971;28;20050;-61
2022/12/28 08:13:53;;;;;;;2.75;0.70;;;;;;;4.31;89.12;97612.38;5038281;28;20654;-61
2022/12/28 08:16:21;;;;;;;2.10;0.70;;;;;;;4.33;89.34;97613.00;5030406;28;20053;-61
2022/12/28 08:18:48;;;;;;;2.00;0.60;;;;;;;4.36;88.80;97613.41;5040847;28;20046;-61
2022/12/28 08:21:25;;;;;;;1.58;0.77;;;;;;;4.38;88.50;97614.03;5037757;28;20536;-61
2022/12/28 08:23:52;;;;;;;4.07;0.98;;;;;;;4.45;88.24;97613.22;5043907;28;20052;-61
2022/12/28 08:26:20;;;;;;;2.38;0.77;;;;;;;4.49;87.85;97604.53;5041119;28;20072;-61
2022/12/28 08:28:49;;;;;;;1.40;0.70;;;;;;;4.58;87.54;97612.38;5048932;28;20462;-60
2022/12/28 08:31:19;;;;;;;2.28;0.90;;;;;;;4.58;87.68;97607.84;5045043;28;20681;-61
2022/12/28 08:33:47;;;;;;;4.07;0.80;;;;;;;4.62;87.43;97609.09;5037723;28;20059;-61
2022/12/28 08:36:14;;;;;;;1.60;0.75;;;;;;;4.62;86.79;97606.41;5048824;28;20048;-58
2022/12/28 08:38:43;;;;;;;3.47;0.90;;;;;;;4.64;86.96;97600.84;5044030;28;20053;-59
2022/12/28 08:41:21;;;;;;;3.75;0.93;;;;;;;4.65;86.93;97599.78;5031807;28;20053;-59
2022/12/28 08:43:48;;;;;;;1.92;0.90;;;;;;;4.54;87.96;97604.72;5044051;28;20064;-59
2022/12/28 08:46:27;;;;;;;4.13;1.10;;;;;;;4.52;87.95;97606.81;5008078;28;20044;-61
2022/12/28 08:48:56;;;;;;;2.78;1.00;;;;;;;4.51;87.93;97601.66;5001013;28;20597;-60
2022/12/28 08:51:24;;;;;;;2.25;1.00;;;;;;;4.56;87.78;97601.84;5024088;28;20614;-59
2022/12/28 08:53:51;;;;;;;3.33;1.10;;;;;;;4.58;88.16;97615.06;5033570;28;20041;-60
2022/12/28 08:56:26;;;;;;;6.03;1.10;;;;;;;4.54;88.00;97607.41;5025682;28;20049;-60
2022/12/28 08:58:54;;;;;;;2.67;1.00;;;;;;;4.60;88.08;97603.09;5032730;28;20045;-61
2022/12/28 09:01:29;;;;;;;2.08;1.00;;;;;;;4.63;88.17;97602.69;5036334;28;20048;-61
2022/12/28 09:03:58;;;;;;;2.35;0.98;;;;;;;4.66;87.98;97598.75;5043397;28;20039;-60
2022/12/28 09:06:37;;;;;;;2.33;1.30;;;;;;;4.66;87.65;97604.94;5032512;28;20429;-61
2022/12/28 09:09:06;;;;;;;2.92;1.10;;;;;;;4.67;88.06;97597.72;5032234;28;20077;-60
2022/12/28 09:11:34;;;;;;;4.78;1.20;;;;;;;4.74;87.78;97601.22;5031551;28;20049;-53
2022/12/28 09:14:03;;;;;;;3.67;1.00;;;;;;;4.78;87.63;97606.97;5035696;28;20041;-53
2022/12/28 09:16:30;;;;;;;2.85;1.35;;;;;;;4.81;87.70;97598.53;5034336;28;20048;-55
2022/12/28 09:18:59;;;;;;;2.65;1.30;;;;;;;4.87;87.13;97596.88;5038300;28;20064;-53
2022/12/28 09:21:28;;;;;;;3.78;1.33;;;;;;;4.92;87.46;97597.06;5022067;28;20440;-55
2022/12/28 09:23:55;;;;;;;2.30;1.17;;;;;;;4.93;86.90;97588.81;5035378;28;20149;-66
2022/12/28 09:26:24;;;;;;;4.15;1.30;;;;;;;4.93;87.21;97586.13;5013291;28;20055;-64
2022/12/28 09:28:54;;;;;;;2.80;1.23;;;;;;;4.99;86.77;97586.31;5042582;28;20102;-63
2022/12/28 09:31:22;;;;;;;2.65;1.10;;;;;;;5.04;86.14;97587.31;5028467;28;20424;-64
2022/12/28 09:33:59;;;;;;;3.47;1.17;;;;;;;5.05;86.72;97588.97;5034837;28;20497;-64
2022/12/28 09:36:46;;;;;;;2.53;1.10;;;;;;;5.13;86.36;97589.78;5026929;28;20084;-65
2022/12/28 09:39:16;;;;;;;2.33;1.10;;;;;;;5.19;86.52;97594.28;5030043;28;20049;-65
2022/12/28 09:42:02;;;;;;;4.05;1.23;;;;;;;5.28;85.30;97579.63;5037707;28;20110;-64
2022/12/28 09:44:52;;;;;;;2.72;1.30;;;;;;;5.32;85.47;97580.84;5031406;28;20128;-65
2022/12/28 09:47:32;;;;;;;2.47;1.10;;;;;;;5.32;86.04;97580.84;5026297;28;20118;-65
2022/12/28 09:50:17;;;;;;;3.90;1.38;;;;;;;5.36;85.94;97575.88;5047751;28;20091;-65
2022/12/28 09:53:02;;;;;;;4.38;1.40;;;;;;;5.28;85.63;97571.56;5038624;28;20072;-64
2022/12/28 09:55:30;;;;;;;2.42;1.10;;;;;;;5.27;86.46;97574.47;5038577;28;20045;-64
2022/12/28 09:57:58;;;;;;;2.97;1.40;;;;;;;5.26;86.47;97576.31;5041359;28;20052;-65
2022/12/28 10:00:36;;;;;;;4.50;1.35;;;;;;;5.16;86.37;97582.13;5041432;28;20055;-64
2022/12/28 10:03:10;;;;;;;2.65;1.10;;;;;;;5.14;87.05;97578.84;5040617;28;20056;-64
2022/12/28 10:05:36;;;;;;;4.07;1.73;;;;;;;5.14;86.83;97576.16;5036437;28;20049;-63
2022/12/28 10:08:03;;;;;;;2.85;1.27;;;;;;;5.10;87.33;97564.19;5036911;28;20056;-64
2022/12/28 10:10:30;;;;;;;3.63;1.60;;;;;;;5.15;86.96;97564.38;5043638;28;20052;-64
2022/12/28 10:13:10;;;;;;;3.72;1.25;;;;;;;5.26;86.22;97560.19;5035184;28;20048;-63
2022/12/28 10:15:57;;;;;;;3.28;1.58;;;;;;;5.28;85.74;97560.81;5042777;28;20443;-64
2022/12/28 10:18:26;;;;;;;3.97;1.50;;;;;;;5.32;86.00;97562.06;5051472;28;20087;-63
2022/12/28 10:20:54;;;;;;;2.72;1.10;;;;;;;5.43;85.14;97557.03;5039332;28;20726;-63
2022/12/28 10:23:28;;;;;;;6.13;1.77;;;;;;;5.48;85.19;97559.91;5042373;28;20407;-63
2022/12/28 10:25:57;;;;;;;4.20;1.50;;;;;;;5.56;85.07;97559.66;5029513;28;20126;-63
2022/12/28 10:28:30;;;;;;;6.85;3.40;;;;;;;5.69;84.46;97547.19;5044200;28;20048;-63
2022/12/28 10:31:08;;;;;;;3.10;1.33;;;;;;;5.81;83.36;97544.63;5029187;28;20101;-63
2022/12/28 10:33:40;;;;;;;4.40;1.60;;;;;;;5.84;84.02;97534.28;5024159;28;20057;-63
2022/12/28 10:36:13;;;;;;;4.03;1.35;;;;;;;5.96;83.80;97531.72;5028041;28;20057;-63
2022/12/28 10:38:42;;;;;;;3.65;1.52;;;;;;;6.11;83.32;97533.28;5022652;28;20608;-63
2022/12/28 10:41:12;;;;;;;4.75;1.30;;;;;;;6.21;82.67;97533.63;5021564;28;20073;-64
2022/12/28 10:43:40;;;;;;;4.07;1.60;;;;;;;6.34;82.55;97526.47;5031579;28;20053;-63
2022/12/28 10:46:16;;;;;;;4.75;1.45;;;;;;;6.52;82.14;97517.59;5038001;28;20432;-63
2022/12/28 10:48:50;;;;;;;7.43;2.47;;;;;;;6.75;82.37;97521.53;5033960;28;20575;-63
2022/12/28 10:51:19;;;;;;;9.07;4.00;;;;;;;6.94;80.17;97513.44;5032253;28;20052;-64
2022/12/28 10:53:48;;;;;;;2.90;0.80;;;;;;;7.06;79.66;97498.19;5029155;28;20091;-63
2022/12/28 10:56:31;;;;;;;3.83;1.80;;;;;;;7.22;78.42;97499.44;5031382;28;20495;-63
2022/12/28 10:59:11;;;;;;;6.15;2.45;;;;;;;7.39;77.71;97499.63;5032559;28;20120;-64
2022/12/28 11:01:40;;;;;;;4.78;1.70;;;;;;;7.53;77.64;97497.56;5040004;28;20068;-62
2022/12/28 11:04:18;;;;;;;4.25;1.52;;;;;;;7.61;77.25;97501.81;5032591;28;20046;-64
2022/12/28 11:06:53;;;;;;;3.17;1.10;;;;;;;7.68;76.57;97493.63;5048195;28;20130;-62
2022/12/28 11:09:25;;;;;;;4.32;1.70;;;;;;;7.76;75.79;97484.38;5038664;28;20098;-62
2022/12/28 11:11:55;;;;;;;5.18;2.83;;;;;;;7.85;76.18;97488.38;5032837;28;20045;-62
2022/12/28 11:14:33;;;;;;;4.03;1.88;;;;;;;7.90;75.73;97488.53;5032417;28;20112;-62
2022/12/28 11:17:21;;;;;;;3.28;1.00;;;;;;;7.99;76.18;97482.81;5037597;28;20378;-62
2022/12/28 11:19:50;;;;;;;5.40;1.98;;;;;;;8.00;75.91;97471.78;5038919;28;20037;-62
2022/12/28 11:22:23;;;;;;;4.72;2.00;;;;;;;7.93;75.91;97477.28;5034161;28;20052;-64
2022/12/28 11:24:50;;;;;;;5.25;1.30;;;;;;;8.12;75.47;97468.28;5038119;28;20406;-62
2022/12/28 11:27:20;;;;;;;4.55;1.00;;;;;;;8.24;74.98;97460.19;5034013;28;20162;-62
2022/12/28 11:29:50;;;;;;;4.45;1.80;;;;;;;8.20;75.64;97465.22;5031903;28;20232;-62
2022/12/28 11:32:28;;;;;;;4.28;2.45;;;;;;;8.09;74.59;97448.00;5025154;28;20072;-63
2022/12/28 11:34:56;;;;;;;3.75;1.48;;;;;;;8.10;74.57;97444.22;5037349;28;20105;-62
2022/12/28 11:37:23;;;;;;;4.07;2.00;;;;;;;8.13;74.48;97440.25;5036352;28;20119;-63
2022/12/28 11:39:51;;;;;;;9.75;2.40;;;;;;;8.22;74.58;97438.03;5037656;28;20737;-63
2022/12/28 11:42:33;;;;;;;3.10;1.20;;;;;;;8.23;74.18;97436.97;5032863;28;20048;-63
2022/12/28 11:45:14;;;;;;;4.25;1.38;;;;;;;8.20;74.87;97446.34;5044825;28;20049;-63
2022/12/28 11:47:40;;;;;;;1.95;1.10;;;;;;;8.23;74.92;97443.19;5029369;28;20505;-63
2022/12/28 11:50:33;;;;;;;2.58;1.05;;;;;;;8.14;75.64;97434.63;5036940;28;20508;-62
2022/12/28 11:53:01;;;;;;;3.50;1.08;;;;;;;8.18;76.68;97438.47;5024627;28;20544;-67
2022/12/28 11:55:47;;;;;;;2.92;1.30;;;;;;;8.09;75.12;97433.66;5004709;28;20509;-66
2022/12/28 11:58:28;;;;;;;5.18;1.95;;;;;;;8.08;75.43;97430.16;5022378;28;20675;-65
2022/12/28 12:00:58;;;;;;;3.15;1.27;;;;;;;7.90;75.01;97423.84;5029486;28;20045;-62
2022/12/28 12:03:56;;;;;;;2.42;1.08;;;;;;;7.77;75.16;97419.47;5037838;28;20420;-63
2022/12/28 12:06:41;;;;;;;4.97;1.35;;;;;;;7.63;75.54;97426.94;5034358;28;20033;-64
2022/12/28 12:09:19;;;;;;;3.90;1.80;;;;;;;7.68;75.82;97427.06;5034388;28;20076;-65
2022/12/28 12:12:12;;;;;;;6.07;1.77;;;;;;;7.88;75.82;97409.75;5032056;28;20120;-63
2022/12/28 12:14:53;;;;;;;4.05;1.33;;;;;;;7.90;75.07;97406.81;5028105;28;20056;-63
2022/12/28 12:17:29;;;;;;;4.28;1.30;;;;;;;7.90;75.61;97401.44;5043116;28;20078;-63
2022/12/28 12:19:59;;;;;;;1.92;1.20;;;;;;;8.00;75.39;97406.25;5041903;28;20571;-63
2022/12/28 12:22:34;;;;;;;2.80;1.13;;;;;;;8.00;75.22;97390.06;5032023;28;20073;-66
2022/12/28 12:25:33;;;;;;;3.97;1.10;;;;;;;8.10;74.85;97394.88;5044938;28;20049;-64
2022/12/28 12:28:07;;;;;;;4.40;1.60;;;;;;;8.02;74.01;97383.38;5032058;28;20052;-64
2022/12/28 12:30:35;;;;;;;2.47;1.38;;;;;;;7.96;76.48;97384.31;5034684;28;20048;-64